Página principal
METAR-TAF:

METAR-TAF

Aeroportos :

Portage Glacier, Alasca, Estados Unidos

latitude: 60-47N, longitude: 148-50W, altura: 29 m

Observação actual do tempo

O boletim foi feito há 29 minutos, às 18:53 UTC
Vento 5 kt de sudeste
Temperatura 13°C
Humidade 72%
Pressão 1017 hPa
Visibilidade: 16.1 km
Encobertoa uma altura de 4500 ft

METAR: PATO 201853Z AUTO 13005KT 10SM OVC045 13/08 A3004 RMK AO2 SLP173 T01330078 TSNO

Hora: 11:22 (19:22 UTC)


TAF: em falta

Observações e previsões do tempo de mais de 4000 aeroportos (mensagens METAR e TAF).

As estações disponíveis são os pontos amarelos e vermelhos sobre o mapa.

Mova o rato sobre o mapa para ver o nome da estação.

Depois clique no ponto para visualizar as observações e previsões meteorológicas.

Para alterar o mapa : clique nos botões verdes com uma cruz preta para aumentar o zoom; no botão verde com uma pitada de zoom; ou nas setas verdes para mapas adjacentes.


METAR-TAF: